createdAt,value
2022-08-26T00:02:16.830Z,52.70
2022-08-26T00:04:54.398Z,52.42
2022-08-26T00:07:28.285Z,52.06
2022-08-26T00:10:03.180Z,51.99
2022-08-26T00:12:37.678Z,51.81
2022-08-26T00:15:15.150Z,51.95
2022-08-26T00:17:49.107Z,51.57
2022-08-26T00:20:27.319Z,51.53
2022-08-26T00:23:02.019Z,51.55
2022-08-26T00:25:38.117Z,51.76
2022-08-26T00:28:16.797Z,52.44
2022-08-26T00:30:53.032Z,53.09
2022-08-26T00:33:47.247Z,53.45
2022-08-26T00:36:21.326Z,53.72
2022-08-26T00:39:07.449Z,53.73
2022-08-26T00:41:42.294Z,53.80
2022-08-26T00:44:18.565Z,53.92
2022-08-26T00:46:54.813Z,53.92
2022-08-26T00:49:33.192Z,54.05
2022-08-26T00:52:15.329Z,54.24
2022-08-26T00:54:54.838Z,54.31
2022-08-26T00:57:29.455Z,54.29
2022-08-26T01:00:08.433Z,54.45
2022-08-26T01:02:46.851Z,54.42
2022-08-26T01:05:21.962Z,54.64
2022-08-26T01:07:58.390Z,54.71
2022-08-26T01:10:46.359Z,54.82
2022-08-26T01:13:21.615Z,55.01
2022-08-26T01:16:18.396Z,55.25
2022-08-26T01:19:22.234Z,55.24
2022-08-26T01:22:07.441Z,55.04
2022-08-26T01:24:58.470Z,54.97
2022-08-26T01:27:42.130Z,54.77
2022-08-26T01:30:22.464Z,54.31
2022-08-26T01:33:12.708Z,54.09
2022-08-26T01:36:08.433Z,53.78
2022-08-26T01:38:46.145Z,53.70
2022-08-26T01:41:23.736Z,53.50
2022-08-26T01:44:06.848Z,53.40
2022-08-26T01:46:45.126Z,53.07
2022-08-26T01:49:21.235Z,52.93
2022-08-26T01:51:58.629Z,52.81
2022-08-26T01:54:35.880Z,52.98
2022-08-26T01:57:10.101Z,53.22
2022-08-26T01:59:46.916Z,53.44
2022-08-26T02:02:20.795Z,53.78
2022-08-26T02:05:04.022Z,53.83
2022-08-26T02:07:37.689Z,54.03
2022-08-26T02:10:12.830Z,54.27
2022-08-26T02:13:00.504Z,54.42
2022-08-26T02:15:34.758Z,54.44
2022-08-26T02:18:14.083Z,54.45
2022-08-26T02:20:58.657Z,54.33
2022-08-26T02:23:42.030Z,54.46
2022-08-26T02:26:19.947Z,54.55
2022-08-26T02:29:01.748Z,54.31
2022-08-26T02:31:35.733Z,54.37
2022-08-26T02:34:16.005Z,54.38
2022-08-26T02:36:49.783Z,54.26
2022-08-26T02:39:37.252Z,53.91
2022-08-26T02:42:14.297Z,53.89
2022-08-26T02:44:53.187Z,53.88
2022-08-26T02:47:29.348Z,54.00
2022-08-26T02:50:06.813Z,54.15
2022-08-26T02:52:41.824Z,54.22
2022-08-26T02:55:18.970Z,54.18
2022-08-26T02:57:55.461Z,54.13
2022-08-26T03:00:29.213Z,54.31
2022-08-26T03:03:03.015Z,54.43
2022-08-26T03:05:37.334Z,54.54
2022-08-26T03:08:12.181Z,54.62
2022-08-26T03:10:46.748Z,54.57
2022-08-26T03:13:25.109Z,54.67
2022-08-26T03:15:59.140Z,54.69
2022-08-26T03:18:33.585Z,54.73
2022-08-26T03:21:11.261Z,54.90
2022-08-26T03:23:48.740Z,54.89
2022-08-26T03:26:30.388Z,54.93
2022-08-26T03:29:32.923Z,55.08
2022-08-26T03:32:07.435Z,55.06
2022-08-26T03:34:40.975Z,55.09
2022-08-26T03:37:34.621Z,55.17
2022-08-26T03:40:14.088Z,55.17
2022-08-26T03:42:58.910Z,55.44
2022-08-26T03:45:33.259Z,55.49
2022-08-26T03:48:07.167Z,55.66
2022-08-26T03:50:43.737Z,55.89
2022-08-26T03:53:17.021Z,56.18
2022-08-26T03:56:15.145Z,56.51
2022-08-26T03:58:51.595Z,56.92
2022-08-26T04:01:25.764Z,57.15
2022-08-26T04:04:00.644Z,57.16
2022-08-26T04:06:36.838Z,57.35
2022-08-26T04:09:13.621Z,57.61
2022-08-26T04:11:50.708Z,57.80
2022-08-26T04:14:27.701Z,58.07
2022-08-26T04:17:01.142Z,58.13
2022-08-26T04:19:34.541Z,58.21
2022-08-26T04:22:08.834Z,58.28
2022-08-26T04:24:46.823Z,58.36
2022-08-26T04:27:20.535Z,58.28
2022-08-26T04:30:06.194Z,58.21
2022-08-26T04:32:42.151Z,58.25
2022-08-26T04:35:16.159Z,58.24
2022-08-26T04:37:50.789Z,58.35
2022-08-26T04:40:28.067Z,58.52
2022-08-26T04:43:06.151Z,58.65
2022-08-26T04:45:41.944Z,58.80
2022-08-26T04:48:16.807Z,58.86
2022-08-26T04:50:50.586Z,59.01
2022-08-26T04:53:25.378Z,59.10
2022-08-26T04:55:59.149Z,59.04
2022-08-26T04:58:36.001Z,59.14
2022-08-26T05:01:19.610Z,59.17
2022-08-26T05:03:53.298Z,59.06
2022-08-26T05:06:48.589Z,59.01
2022-08-26T05:09:24.674Z,58.70
2022-08-26T05:11:58.707Z,58.59
2022-08-26T05:14:32.243Z,58.50
2022-08-26T05:17:08.670Z,58.26
2022-08-26T05:19:42.852Z,58.15
2022-08-26T05:22:21.675Z,57.46
2022-08-26T05:24:58.989Z,56.97
2022-08-26T05:27:32.748Z,56.73
2022-08-26T05:30:07.868Z,56.39
2022-08-26T05:32:43.290Z,55.70
2022-08-26T05:35:20.338Z,55.23
2022-08-26T05:37:59.390Z,54.61
2022-08-26T05:40:35.283Z,54.18
2022-08-26T05:43:10.926Z,53.84
2022-08-26T05:45:47.133Z,53.51
2022-08-26T05:48:24.454Z,53.20
2022-08-26T05:50:58.658Z,53.40
2022-08-26T05:53:32.489Z,52.40
2022-08-26T05:56:07.354Z,51.61
2022-08-26T05:58:43.054Z,51.31
2022-08-26T06:01:24.135Z,49.44
2022-08-26T06:04:01.837Z,48.14
2022-08-26T06:06:56.253Z,48.08
2022-08-26T06:09:29.750Z,48.01
2022-08-26T06:12:08.182Z,47.85
2022-08-26T06:14:41.313Z,47.73
2022-08-26T06:17:15.298Z,47.42
2022-08-26T06:19:48.971Z,47.06
2022-08-26T06:22:40.012Z,46.34
2022-08-26T06:25:31.211Z,45.63
2022-08-26T06:28:05.589Z,45.78
2022-08-26T06:30:42.928Z,45.16
2022-08-26T06:33:16.620Z,44.61
2022-08-26T06:35:51.297Z,44.14
2022-08-26T06:38:24.729Z,44.00
2022-08-26T06:40:59.775Z,43.45
2022-08-26T06:43:33.802Z,43.86
2022-08-26T06:46:10.852Z,42.79
2022-08-26T06:48:43.507Z,40.97
2022-08-26T06:51:19.460Z,38.64
2022-08-26T06:53:59.636Z,36.51
2022-08-26T06:56:51.784Z,34.47
2022-08-26T06:59:28.836Z,32.62
2022-08-26T07:02:10.912Z,31.63
2022-08-26T07:04:47.831Z,30.78
2022-08-26T07:07:22.174Z,29.66
2022-08-26T07:09:56.395Z,28.40
2022-08-26T07:12:30.370Z,27.35
2022-08-26T07:15:03.952Z,25.47
2022-08-26T07:17:38.113Z,25.20
2022-08-26T07:20:13.346Z,25.02
2022-08-26T07:22:50.183Z,24.40
2022-08-26T07:25:24.111Z,23.62
2022-08-26T07:27:58.344Z,22.95
2022-08-26T07:30:34.702Z,22.26
2022-08-26T07:33:08.212Z,21.55
2022-08-26T07:35:42.057Z,21.22
2022-08-26T07:38:15.528Z,20.86
2022-08-26T07:40:49.066Z,20.46
2022-08-26T07:43:22.900Z,19.86
2022-08-26T07:45:58.108Z,19.71
2022-08-26T07:48:31.667Z,20.11
2022-08-26T07:51:08.194Z,20.40
2022-08-26T07:53:41.769Z,20.43
2022-08-26T07:56:16.265Z,20.60
2022-08-26T07:58:51.453Z,21.08
2022-08-26T08:01:46.717Z,21.89
2022-08-26T08:04:26.103Z,22.55
2022-08-26T08:07:05.319Z,23.22
2022-08-26T08:09:49.819Z,23.66
2022-08-26T08:12:44.175Z,24.12
2022-08-26T08:15:26.925Z,24.58
2022-08-26T08:18:04.221Z,24.39
2022-08-26T08:20:38.348Z,23.73
2022-08-26T08:23:20.826Z,23.09
2022-08-26T08:26:15.695Z,24.07
2022-08-26T08:28:58.180Z,24.96
2022-08-26T08:34:29.279Z,25.65
2022-08-26T08:37:04.369Z,26.39
2022-08-26T08:39:41.773Z,26.90
2022-08-26T08:42:45.953Z,26.93
2022-08-26T08:45:36.291Z,26.90
2022-08-26T08:48:15.537Z,26.46
2022-08-26T08:50:52.142Z,26.14
2022-08-26T08:53:35.240Z,24.95
2022-08-26T08:56:20.970Z,25.56
2022-08-26T08:59:04.943Z,26.05
2022-08-26T09:01:54.166Z,26.22
2022-08-26T09:05:08.223Z,26.45
2022-08-26T09:07:50.667Z,27.12
2022-08-26T09:10:37.235Z,27.58
2022-08-26T09:13:16.347Z,27.79
2022-08-26T09:16:00.756Z,28.06
2022-08-26T09:18:54.467Z,28.34
2022-08-26T09:21:30.912Z,28.44
2022-08-26T09:24:14.018Z,28.72
2022-08-26T09:26:49.188Z,29.01
2022-08-26T09:29:50.232Z,29.35
2022-08-26T09:32:27.776Z,29.40
2022-08-26T09:35:07.747Z,29.68
2022-08-26T09:40:34.616Z,30.14
2022-08-26T09:43:22.708Z,29.96
2022-08-26T09:46:12.582Z,30.02
2022-08-26T09:48:53.029Z,30.20
2022-08-26T09:51:34.932Z,30.44
2022-08-26T09:54:30.093Z,30.56
2022-08-26T09:57:27.675Z,30.37
2022-08-26T10:00:02.793Z,30.76
2022-08-26T10:02:47.668Z,30.96
2022-08-26T10:05:43.660Z,31.30
2022-08-26T10:08:35.707Z,31.62
2022-08-26T10:11:19.762Z,32.11
2022-08-26T10:14:00.395Z,32.56
2022-08-26T10:16:41.786Z,32.69
2022-08-26T10:19:19.102Z,32.90
2022-08-26T10:22:01.794Z,33.01
2022-08-26T10:24:39.951Z,33.14
2022-08-26T10:27:25.382Z,33.17
2022-08-26T10:30:07.271Z,33.06
2022-08-26T10:32:47.258Z,32.89
2022-08-26T10:35:24.213Z,32.83
2022-08-26T10:38:21.866Z,33.03
2022-08-26T10:41:02.070Z,32.83
2022-08-26T10:43:43.636Z,33.09
2022-08-26T10:46:22.784Z,32.83
2022-08-26T10:49:15.787Z,33.16
2022-08-26T10:51:59.798Z,32.61
2022-08-26T10:54:54.902Z,32.48
2022-08-26T10:57:41.105Z,32.57
2022-08-26T11:00:38.561Z,32.35
2022-08-26T11:03:27.994Z,31.99
2022-08-26T11:06:34.194Z,31.34
2022-08-26T11:09:11.849Z,30.61
2022-08-26T11:11:54.498Z,31.09
2022-08-26T11:14:58.851Z,31.33
2022-08-26T11:18:01.978Z,31.13
2022-08-26T11:20:42.193Z,31.03
2022-08-26T11:23:50.226Z,30.99
2022-08-26T11:26:56.339Z,30.73
2022-08-26T11:30:05.771Z,30.57
2022-08-26T11:33:00.956Z,30.52
2022-08-26T11:35:54.007Z,30.57
2022-08-26T11:38:31.020Z,30.55
2022-08-26T11:41:14.190Z,30.58
2022-08-26T11:43:52.469Z,30.30
2022-08-26T11:46:36.344Z,30.68
2022-08-26T11:49:13.345Z,30.66
2022-08-26T11:51:48.363Z,30.26
2022-08-26T11:54:30.777Z,29.79
2022-08-26T11:57:15.066Z,30.09
2022-08-26T11:59:51.736Z,30.43
2022-08-26T12:02:28.298Z,30.57
2022-08-26T12:05:05.000Z,30.75
2022-08-26T12:07:38.940Z,30.98
2022-08-26T12:10:33.898Z,31.08
2022-08-26T12:13:26.464Z,30.93
2022-08-26T12:16:01.986Z,30.80
2022-08-26T12:18:38.433Z,30.52
2022-08-26T12:21:22.446Z,29.75
2022-08-26T12:23:59.655Z,29.11
2022-08-26T12:26:37.008Z,29.22
2022-08-26T12:29:26.660Z,29.08
2022-08-26T12:32:14.743Z,29.25
2022-08-26T12:34:50.660Z,29.50
2022-08-26T12:37:24.527Z,29.50
2022-08-26T12:40:41.285Z,30.12
2022-08-26T12:43:17.582Z,30.13
2022-08-26T12:46:09.368Z,30.05
2022-08-26T12:48:49.259Z,30.11
2022-08-26T12:51:28.194Z,30.29
2022-08-26T12:54:07.253Z,29.77
2022-08-26T12:56:43.422Z,29.66
2022-08-26T12:59:26.310Z,29.58
2022-08-26T13:02:02.755Z,29.39
2022-08-26T13:04:46.568Z,28.96
2022-08-26T13:07:25.882Z,28.61
2022-08-26T13:10:01.348Z,27.92
2022-08-26T13:12:38.562Z,28.37
2022-08-26T13:15:12.883Z,28.42
2022-08-26T13:17:46.346Z,28.40
2022-08-26T13:20:20.549Z,28.29
2022-08-26T13:23:00.988Z,28.24
2022-08-26T13:25:34.796Z,28.56
2022-08-26T13:28:08.747Z,28.89
2022-08-26T13:30:44.814Z,29.24
2022-08-26T13:33:19.220Z,28.64
2022-08-26T13:35:57.288Z,28.80
2022-08-26T13:38:34.717Z,28.61
2022-08-26T13:41:13.325Z,28.91
2022-08-26T13:43:49.559Z,29.07
2022-08-26T13:46:32.663Z,28.96
2022-08-26T13:49:07.341Z,28.49
2022-08-26T13:51:41.063Z,28.67
2022-08-26T13:54:14.810Z,29.14
2022-08-26T13:56:48.604Z,29.40
2022-08-26T13:59:22.789Z,29.50
2022-08-26T14:01:56.706Z,29.84
2022-08-26T14:04:32.200Z,30.17
2022-08-26T14:07:05.933Z,29.98
2022-08-26T14:09:39.314Z,29.81
2022-08-26T14:12:16.968Z,29.93
2022-08-26T14:14:50.651Z,29.81
2022-08-26T14:17:26.763Z,29.64
2022-08-26T14:20:04.583Z,29.44
2022-08-26T14:22:43.726Z,29.40
2022-08-26T14:25:35.038Z,29.47
2022-08-26T14:28:09.274Z,29.64
2022-08-26T14:30:44.467Z,29.94
2022-08-26T14:33:19.942Z,29.63
2022-08-26T14:36:14.853Z,29.43
2022-08-26T14:38:48.849Z,29.78
2022-08-26T14:41:23.397Z,29.47
2022-08-26T14:44:03.912Z,29.39
2022-08-26T14:46:44.340Z,29.42
2022-08-26T14:49:22.106Z,29.66
2022-08-26T14:51:55.681Z,29.91
2022-08-26T14:54:29.811Z,29.43
2022-08-26T14:57:05.314Z,28.97
2022-08-26T14:59:45.467Z,29.00
2022-08-26T15:02:33.295Z,28.79
2022-08-26T15:05:08.888Z,28.51
2022-08-26T15:07:42.234Z,28.55
2022-08-26T15:10:17.241Z,28.66
2022-08-26T15:12:50.911Z,28.33
2022-08-26T15:15:24.253Z,28.58
2022-08-26T15:17:59.918Z,28.88
2022-08-26T15:23:12.384Z,28.91
2022-08-26T15:25:49.163Z,29.09
2022-08-26T15:28:23.288Z,28.61
2022-08-26T15:30:56.554Z,28.74
2022-08-26T15:33:33.425Z,28.72
2022-08-26T15:36:08.933Z,29.13
2022-08-26T15:38:43.915Z,29.25
2022-08-26T15:41:17.384Z,29.45
2022-08-26T15:43:50.808Z,29.40
2022-08-26T15:46:24.089Z,29.52
2022-08-26T15:48:57.446Z,29.49
2022-08-26T15:51:35.753Z,29.31
2022-08-26T15:54:21.096Z,29.45
2022-08-26T15:56:55.251Z,29.51
2022-08-26T15:59:38.876Z,29.98
2022-08-26T16:02:21.126Z,29.69
2022-08-26T16:04:54.676Z,29.61
2022-08-26T16:07:30.520Z,29.70
2022-08-26T16:10:04.427Z,29.91
2022-08-26T16:12:40.276Z,29.90
2022-08-26T16:15:15.164Z,29.76
2022-08-26T16:17:55.754Z,29.99
2022-08-26T16:20:29.134Z,30.19
2022-08-26T16:23:03.364Z,30.30
2022-08-26T16:25:37.230Z,30.42
2022-08-26T16:28:11.567Z,30.34
2022-08-26T16:30:46.284Z,30.34
2022-08-26T16:33:21.562Z,30.35
2022-08-26T16:36:03.134Z,30.65
2022-08-26T16:38:37.930Z,30.68
2022-08-26T16:41:14.359Z,30.73
2022-08-26T16:43:48.471Z,30.70
2022-08-26T16:46:33.102Z,30.62
2022-08-26T16:49:07.283Z,30.65
2022-08-26T16:51:41.050Z,30.64
2022-08-26T16:54:14.607Z,30.60
2022-08-26T16:56:51.580Z,30.70
2022-08-26T16:59:25.631Z,30.43
2022-08-26T17:01:59.228Z,30.61
2022-08-26T17:04:33.112Z,30.58
2022-08-26T17:07:06.884Z,30.72
2022-08-26T17:09:41.886Z,30.30
2022-08-26T17:12:15.243Z,30.46
2022-08-26T17:14:48.878Z,30.48
2022-08-26T17:17:23.181Z,30.37
2022-08-26T17:19:56.520Z,30.23
2022-08-26T17:22:34.670Z,30.45
2022-08-26T17:25:23.130Z,30.60
2022-08-26T17:28:00.532Z,30.99
2022-08-26T17:30:34.688Z,31.05
2022-08-26T17:33:11.018Z,31.39
2022-08-26T17:35:45.064Z,31.50
2022-08-26T17:38:19.102Z,31.92
2022-08-26T17:40:53.269Z,31.95
2022-08-26T17:43:27.836Z,32.16
2022-08-26T17:46:07.387Z,32.18
2022-08-26T17:48:42.262Z,32.40
2022-08-26T17:51:17.573Z,32.63
2022-08-26T17:53:52.630Z,32.89
2022-08-26T17:56:46.141Z,33.21
2022-08-26T17:59:20.289Z,33.41
2022-08-26T18:01:55.905Z,33.73
2022-08-26T18:04:29.563Z,33.92
2022-08-26T18:07:03.152Z,34.13
2022-08-26T18:09:36.412Z,34.40
2022-08-26T18:12:11.508Z,34.51
2022-08-26T18:14:45.675Z,34.83
2022-08-26T18:17:19.673Z,34.96
2022-08-26T18:19:55.873Z,34.90
2022-08-26T18:22:29.398Z,35.16
2022-08-26T18:25:05.238Z,35.34
2022-08-26T18:27:40.177Z,35.32
2022-08-26T18:30:20.997Z,35.74
2022-08-26T18:32:55.291Z,35.84
2022-08-26T18:35:30.661Z,35.75
2022-08-26T18:38:11.026Z,36.12
2022-08-26T18:40:52.709Z,36.19
2022-08-26T18:43:26.427Z,36.38
2022-08-26T18:46:07.283Z,36.60
2022-08-26T18:48:41.850Z,36.82
2022-08-26T18:51:21.425Z,37.01
2022-08-26T18:53:55.254Z,37.31
2022-08-26T18:56:29.311Z,37.37
2022-08-26T18:59:04.020Z,37.54
2022-08-26T19:01:39.582Z,37.70
2022-08-26T19:04:15.419Z,38.06
2022-08-26T19:06:51.182Z,38.20
2022-08-26T19:09:26.731Z,38.24
2022-08-26T19:12:04.100Z,38.42
2022-08-26T19:14:39.363Z,38.83
2022-08-26T19:17:13.920Z,38.92
2022-08-26T19:19:48.170Z,39.09
2022-08-26T19:22:22.901Z,39.26
2022-08-26T19:24:59.920Z,39.46
2022-08-26T19:27:34.700Z,39.70
2022-08-26T19:30:10.638Z,39.69
2022-08-26T19:32:44.943Z,39.61
2022-08-26T19:35:19.154Z,39.75
2022-08-26T19:37:53.270Z,39.85
2022-08-26T19:40:27.305Z,39.91
2022-08-26T19:43:01.257Z,39.90
2022-08-26T19:45:35.662Z,40.10
2022-08-26T19:48:12.100Z,40.17
2022-08-26T19:50:47.203Z,40.37
2022-08-26T19:53:21.084Z,40.36
2022-08-26T19:55:54.850Z,40.41
2022-08-26T19:58:28.719Z,40.56
2022-08-26T20:01:03.041Z,40.68
2022-08-26T20:03:37.427Z,40.67
2022-08-26T20:06:13.480Z,40.69
2022-08-26T20:08:48.189Z,40.90
2022-08-26T20:11:24.789Z,41.13
2022-08-26T20:14:01.342Z,41.11
2022-08-26T20:16:35.164Z,41.20
2022-08-26T20:19:27.493Z,41.51
2022-08-26T20:22:04.533Z,41.78
2022-08-26T20:24:38.380Z,42.10
2022-08-26T20:27:12.341Z,42.34
2022-08-26T20:29:46.905Z,42.67
2022-08-26T20:32:20.737Z,42.75
2022-08-26T20:34:56.060Z,42.91
2022-08-26T20:37:42.895Z,43.08
2022-08-26T20:40:21.576Z,43.08
2022-08-26T20:42:55.231Z,43.32
2022-08-26T20:45:29.236Z,43.43
2022-08-26T20:48:03.030Z,43.64
2022-08-26T20:50:37.717Z,43.88
2022-08-26T20:53:11.416Z,43.85
2022-08-26T20:55:50.772Z,43.90
2022-08-26T20:58:36.610Z,44.10
2022-08-26T21:01:20.918Z,44.12
2022-08-26T21:03:58.484Z,44.48
2022-08-26T21:06:35.318Z,44.41
2022-08-26T21:09:19.285Z,44.61
2022-08-26T21:12:12.840Z,44.86
2022-08-26T21:14:49.497Z,44.75
2022-08-26T21:17:23.827Z,44.94
2022-08-26T21:19:57.564Z,44.79
2022-08-26T21:22:32.360Z,44.84
2022-08-26T21:25:06.696Z,45.02
2022-08-26T21:27:43.047Z,44.98
2022-08-26T21:30:17.895Z,45.13
2022-08-26T21:32:51.861Z,44.92
2022-08-26T21:35:25.674Z,44.88
2022-08-26T21:37:59.292Z,44.81
2022-08-26T21:41:02.844Z,44.85
2022-08-26T21:43:40.131Z,44.81
2022-08-26T21:46:16.076Z,44.74
2022-08-26T21:49:12.059Z,44.78
2022-08-26T21:51:47.536Z,44.65
2022-08-26T21:54:24.461Z,44.54
2022-08-26T21:57:01.441Z,44.34
2022-08-26T21:59:35.160Z,44.39
2022-08-26T22:02:09.111Z,44.49
2022-08-26T22:04:45.708Z,44.47
2022-08-26T22:07:22.381Z,44.62
2022-08-26T22:09:56.463Z,44.71
2022-08-26T22:12:30.304Z,44.92
2022-08-26T22:15:04.192Z,44.93
2022-08-26T22:17:38.295Z,45.00
2022-08-26T22:20:16.502Z,45.11
2022-08-26T22:22:50.384Z,45.01
2022-08-26T22:25:27.679Z,45.03
2022-08-26T22:28:01.989Z,44.93
2022-08-26T22:30:35.996Z,44.91
2022-08-26T22:33:09.876Z,44.85
2022-08-26T22:36:03.963Z,44.82
2022-08-26T22:38:37.946Z,44.75
2022-08-26T22:41:24.642Z,44.97
2022-08-26T22:44:09.203Z,45.04
2022-08-26T22:46:55.871Z,44.99
2022-08-26T22:49:49.790Z,45.07
2022-08-26T22:52:32.625Z,44.96
2022-08-26T22:55:06.786Z,45.14
2022-08-26T22:58:00.503Z,45.09
2022-08-26T23:00:37.747Z,45.34
2022-08-26T23:03:31.602Z,45.28
2022-08-26T23:06:25.615Z,45.46
2022-08-26T23:09:20.391Z,45.57
2022-08-26T23:12:01.784Z,45.58
2022-08-26T23:14:37.987Z,45.71
2022-08-26T23:17:14.702Z,45.91
2022-08-26T23:19:51.305Z,46.14
2022-08-26T23:22:35.520Z,46.19
2022-08-26T23:25:11.355Z,46.42
2022-08-26T23:27:54.919Z,46.45
2022-08-26T23:30:39.014Z,46.50
2022-08-26T23:33:13.026Z,46.55
2022-08-26T23:36:07.143Z,46.55
2022-08-26T23:38:54.141Z,46.81
2022-08-26T23:41:38.722Z,47.05
2022-08-26T23:44:22.467Z,47.22
2022-08-26T23:47:08.125Z,47.42
2022-08-26T23:50:01.843Z,47.63
2022-08-26T23:53:09.434Z,47.90
2022-08-26T23:56:03.484Z,48.07
2022-08-26T23:58:37.340Z,47.99
